sensor_id;sensor_type;location;lat;lon;timestamp;P1;durP1;ratioP1;P2;durP2;ratioP2
15451;SDS011;7827;53.594;9.938;2023-02-14T00:01:53;48.37;;;26.53;;
15451;SDS011;7827;53.594;9.938;2023-02-14T00:04:22;43.77;;;24.87;;
15451;SDS011;7827;53.594;9.938;2023-02-14T00:06:50;49.57;;;27.13;;
15451;SDS011;7827;53.594;9.938;2023-02-14T00:09:18;48.33;;;26.00;;
15451;SDS011;7827;53.594;9.938;2023-02-14T00:11:47;46.30;;;27.00;;
15451;SDS011;7827;53.594;9.938;2023-02-14T00:14:15;48.07;;;27.80;;
15451;SDS011;7827;53.594;9.938;2023-02-14T00:17:03;46.37;;;27.27;;
15451;SDS011;7827;53.594;9.938;2023-02-14T00:19:32;44.80;;;26.23;;
15451;SDS011;7827;53.594;9.938;2023-02-14T00:22:06;45.10;;;26.63;;
15451;SDS011;7827;53.594;9.938;2023-02-14T00:24:34;50.63;;;26.33;;
15451;SDS011;7827;53.594;9.938;2023-02-14T00:27:02;47.63;;;26.73;;
15451;SDS011;7827;53.594;9.938;2023-02-14T00:29:31;42.87;;;25.97;;
15451;SDS011;7827;53.594;9.938;2023-02-14T00:32:00;45.07;;;25.87;;
15451;SDS011;7827;53.594;9.938;2023-02-14T00:34:30;46.20;;;26.77;;
15451;SDS011;7827;53.594;9.938;2023-02-14T00:40:12;46.33;;;26.50;;
15451;SDS011;7827;53.594;9.938;2023-02-14T00:42:41;43.97;;;25.23;;
15451;SDS011;7827;53.594;9.938;2023-02-14T00:45:09;47.57;;;26.50;;
15451;SDS011;7827;53.594;9.938;2023-02-14T00:47:37;45.97;;;25.97;;
15451;SDS011;7827;53.594;9.938;2023-02-14T00:50:07;41.20;;;24.73;;
15451;SDS011;7827;53.594;9.938;2023-02-14T00:52:36;49.23;;;27.20;;
15451;SDS011;7827;53.594;9.938;2023-02-14T00:55:05;45.23;;;26.57;;
15451;SDS011;7827;53.594;9.938;2023-02-14T00:57:33;45.97;;;26.70;;
15451;SDS011;7827;53.594;9.938;2023-02-14T01:00:03;50.97;;;27.07;;
15451;SDS011;7827;53.594;9.938;2023-02-14T01:02:33;47.77;;;27.07;;
15451;SDS011;7827;53.594;9.938;2023-02-14T01:05:01;47.10;;;26.80;;
15451;SDS011;7827;53.594;9.938;2023-02-14T01:07:31;45.40;;;26.37;;
15451;SDS011;7827;53.594;9.938;2023-02-14T01:09:59;44.43;;;25.60;;
15451;SDS011;7827;53.594;9.938;2023-02-14T01:12:29;43.60;;;26.07;;
15451;SDS011;7827;53.594;9.938;2023-02-14T01:14:57;46.30;;;25.50;;
15451;SDS011;7827;53.594;9.938;2023-02-14T01:17:35;44.50;;;24.87;;
15451;SDS011;7827;53.594;9.938;2023-02-14T01:20:04;44.27;;;25.73;;
15451;SDS011;7827;53.594;9.938;2023-02-14T01:30:37;44.30;;;24.57;;
15451;SDS011;7827;53.594;9.938;2023-02-14T01:33:08;43.53;;;25.47;;
15451;SDS011;7827;53.594;9.938;2023-02-14T01:35:36;45.57;;;25.83;;
15451;SDS011;7827;53.594;9.938;2023-02-14T01:38:05;49.23;;;27.27;;
15451;SDS011;7827;53.594;9.938;2023-02-14T01:40:33;47.13;;;27.10;;
15451;SDS011;7827;53.594;9.938;2023-02-14T01:43:03;49.93;;;27.03;;
15451;SDS011;7827;53.594;9.938;2023-02-14T01:45:32;50.03;;;27.57;;
15451;SDS011;7827;53.594;9.938;2023-02-14T01:48:01;49.93;;;28.43;;
15451;SDS011;7827;53.594;9.938;2023-02-14T01:50:32;45.37;;;25.43;;
15451;SDS011;7827;53.594;9.938;2023-02-14T01:53:05;52.40;;;28.27;;
15451;SDS011;7827;53.594;9.938;2023-02-14T01:55:40;49.27;;;27.20;;
15451;SDS011;7827;53.594;9.938;2023-02-14T01:58:13;47.77;;;26.60;;
15451;SDS011;7827;53.594;9.938;2023-02-14T02:00:47;47.47;;;27.50;;
15451;SDS011;7827;53.594;9.938;2023-02-14T02:03:57;49.73;;;26.70;;
15451;SDS011;7827;53.594;9.938;2023-02-14T02:06:32;45.83;;;25.67;;
15451;SDS011;7827;53.594;9.938;2023-02-14T02:09:07;49.97;;;27.97;;
15451;SDS011;7827;53.594;9.938;2023-02-14T02:11:42;49.60;;;28.63;;
15451;SDS011;7827;53.594;9.938;2023-02-14T02:14:15;46.03;;;26.13;;
15451;SDS011;7827;53.594;9.938;2023-02-14T02:16:50;44.27;;;26.07;;
15451;SDS011;7827;53.594;9.938;2023-02-14T02:19:58;46.50;;;26.77;;
15451;SDS011;7827;53.594;9.938;2023-02-14T02:26:27;53.23;;;28.07;;
15451;SDS011;7827;53.594;9.938;2023-02-14T02:36:41;54.33;;;28.00;;
15451;SDS011;7827;53.594;9.938;2023-02-14T02:39:21;48.37;;;26.80;;
15451;SDS011;7827;53.594;9.938;2023-02-14T02:42:05;48.33;;;27.33;;
15451;SDS011;7827;53.594;9.938;2023-02-14T02:44:49;52.97;;;28.17;;
15451;SDS011;7827;53.594;9.938;2023-02-14T02:47:30;51.33;;;27.60;;
15451;SDS011;7827;53.594;9.938;2023-02-14T02:50:10;49.67;;;27.80;;
15451;SDS011;7827;53.594;9.938;2023-02-14T02:53:12;47.93;;;27.10;;
15451;SDS011;7827;53.594;9.938;2023-02-14T02:55:49;47.80;;;27.27;;
15451;SDS011;7827;53.594;9.938;2023-02-14T02:58:40;47.77;;;28.10;;
15451;SDS011;7827;53.594;9.938;2023-02-14T03:01:16;51.70;;;28.63;;
15451;SDS011;7827;53.594;9.938;2023-02-14T03:03:51;53.27;;;29.33;;
15451;SDS011;7827;53.594;9.938;2023-02-14T03:06:44;47.60;;;28.57;;
15451;SDS011;7827;53.594;9.938;2023-02-14T03:12:28;49.40;;;26.60;;
15451;SDS011;7827;53.594;9.938;2023-02-14T03:15:37;50.93;;;28.20;;
15451;SDS011;7827;53.594;9.938;2023-02-14T03:18:30;48.37;;;27.60;;
15451;SDS011;7827;53.594;9.938;2023-02-14T03:21:22;53.13;;;29.17;;
15451;SDS011;7827;53.594;9.938;2023-02-14T03:24:02;52.77;;;28.80;;
15451;SDS011;7827;53.594;9.938;2023-02-14T03:26:42;50.50;;;28.97;;
15451;SDS011;7827;53.594;9.938;2023-02-14T03:29:18;50.33;;;28.77;;
15451;SDS011;7827;53.594;9.938;2023-02-14T03:31:59;54.23;;;29.23;;
15451;SDS011;7827;53.594;9.938;2023-02-14T03:34:42;57.30;;;31.83;;
15451;SDS011;7827;53.594;9.938;2023-02-14T03:37:20;46.93;;;27.57;;
15451;SDS011;7827;53.594;9.938;2023-02-14T03:39:57;53.50;;;29.47;;
15451;SDS011;7827;53.594;9.938;2023-02-14T03:42:37;46.07;;;27.30;;
15451;SDS011;7827;53.594;9.938;2023-02-14T03:45:12;49.87;;;27.20;;
15451;SDS011;7827;53.594;9.938;2023-02-14T03:47:47;50.07;;;28.93;;
15451;SDS011;7827;53.594;9.938;2023-02-14T03:50:18;49.30;;;28.03;;
15451;SDS011;7827;53.594;9.938;2023-02-14T03:52:47;52.50;;;28.87;;
15451;SDS011;7827;53.594;9.938;2023-02-14T03:55:21;49.57;;;28.33;;
15451;SDS011;7827;53.594;9.938;2023-02-14T03:58:00;55.90;;;29.57;;
15451;SDS011;7827;53.594;9.938;2023-02-14T04:00:37;53.63;;;28.20;;
15451;SDS011;7827;53.594;9.938;2023-02-14T04:03:09;47.60;;;28.43;;
15451;SDS011;7827;53.594;9.938;2023-02-14T04:05:43;59.80;;;31.17;;
15451;SDS011;7827;53.594;9.938;2023-02-14T04:08:21;53.13;;;27.97;;
15451;SDS011;7827;53.594;9.938;2023-02-14T04:10:51;53.73;;;28.37;;
15451;SDS011;7827;53.594;9.938;2023-02-14T04:13:22;54.60;;;28.90;;
15451;SDS011;7827;53.594;9.938;2023-02-14T04:15:50;54.50;;;29.83;;
15451;SDS011;7827;53.594;9.938;2023-02-14T04:18:19;53.20;;;29.17;;
15451;SDS011;7827;53.594;9.938;2023-02-14T04:21:02;54.73;;;29.90;;
15451;SDS011;7827;53.594;9.938;2023-02-14T04:23:30;55.93;;;29.23;;
15451;SDS011;7827;53.594;9.938;2023-02-14T04:25:58;57.97;;;29.03;;
15451;SDS011;7827;53.594;9.938;2023-02-14T04:28:30;54.17;;;29.47;;
15451;SDS011;7827;53.594;9.938;2023-02-14T04:30:59;57.40;;;29.70;;
15451;SDS011;7827;53.594;9.938;2023-02-14T04:33:29;56.63;;;28.90;;
15451;SDS011;7827;53.594;9.938;2023-02-14T04:35:58;55.23;;;30.33;;
15451;SDS011;7827;53.594;9.938;2023-02-14T04:38:27;55.47;;;30.50;;
15451;SDS011;7827;53.594;9.938;2023-02-14T04:40:55;54.67;;;29.90;;
15451;SDS011;7827;53.594;9.938;2023-02-14T04:43:24;60.70;;;31.90;;
15451;SDS011;7827;53.594;9.938;2023-02-14T04:45:54;53.97;;;29.73;;
15451;SDS011;7827;53.594;9.938;2023-02-14T04:48:22;54.07;;;29.17;;
15451;SDS011;7827;53.594;9.938;2023-02-14T04:50:51;51.07;;;28.23;;
15451;SDS011;7827;53.594;9.938;2023-02-14T04:53:19;53.83;;;30.80;;
15451;SDS011;7827;53.594;9.938;2023-02-14T04:55:48;55.67;;;30.23;;
15451;SDS011;7827;53.594;9.938;2023-02-14T04:58:17;54.83;;;29.93;;
15451;SDS011;7827;53.594;9.938;2023-02-14T05:00:45;55.50;;;29.80;;
15451;SDS011;7827;53.594;9.938;2023-02-14T05:03:15;54.40;;;29.80;;
15451;SDS011;7827;53.594;9.938;2023-02-14T05:05:43;52.67;;;28.97;;
15451;SDS011;7827;53.594;9.938;2023-02-14T05:08:12;50.27;;;28.63;;
15451;SDS011;7827;53.594;9.938;2023-02-14T05:10:40;55.30;;;29.23;;
15451;SDS011;7827;53.594;9.938;2023-02-14T05:13:09;54.07;;;29.17;;
15451;SDS011;7827;53.594;9.938;2023-02-14T05:15:37;51.37;;;28.33;;
15451;SDS011;7827;53.594;9.938;2023-02-14T05:18:05;53.97;;;28.47;;
15451;SDS011;7827;53.594;9.938;2023-02-14T05:20:35;56.57;;;29.70;;
15451;SDS011;7827;53.594;9.938;2023-02-14T05:23:03;56.43;;;31.33;;
15451;SDS011;7827;53.594;9.938;2023-02-14T05:25:32;62.03;;;30.40;;
15451;SDS011;7827;53.594;9.938;2023-02-14T05:28:00;57.97;;;31.00;;
15451;SDS011;7827;53.594;9.938;2023-02-14T05:30:28;58.03;;;29.67;;
15451;SDS011;7827;53.594;9.938;2023-02-14T05:32:57;59.10;;;29.70;;
15451;SDS011;7827;53.594;9.938;2023-02-14T05:35:26;56.63;;;29.60;;
15451;SDS011;7827;53.594;9.938;2023-02-14T05:37:56;62.03;;;30.47;;
15451;SDS011;7827;53.594;9.938;2023-02-14T05:40:24;59.60;;;30.07;;
15451;SDS011;7827;53.594;9.938;2023-02-14T05:42:54;55.87;;;29.80;;
15451;SDS011;7827;53.594;9.938;2023-02-14T05:45:22;57.83;;;29.80;;
15451;SDS011;7827;53.594;9.938;2023-02-14T05:47:50;58.77;;;30.80;;
15451;SDS011;7827;53.594;9.938;2023-02-14T05:50:19;59.80;;;31.23;;
15451;SDS011;7827;53.594;9.938;2023-02-14T05:52:49;59.13;;;31.03;;
15451;SDS011;7827;53.594;9.938;2023-02-14T05:55:19;57.33;;;30.30;;
15451;SDS011;7827;53.594;9.938;2023-02-14T05:57:47;52.70;;;29.00;;
15451;SDS011;7827;53.594;9.938;2023-02-14T06:00:17;58.87;;;29.80;;
15451;SDS011;7827;53.594;9.938;2023-02-14T06:02:48;57.73;;;30.23;;
15451;SDS011;7827;53.594;9.938;2023-02-14T06:05:16;54.97;;;29.07;;
15451;SDS011;7827;53.594;9.938;2023-02-14T06:07:46;57.43;;;29.97;;
15451;SDS011;7827;53.594;9.938;2023-02-14T06:10:17;60.00;;;31.60;;
15451;SDS011;7827;53.594;9.938;2023-02-14T06:12:49;57.03;;;30.93;;
15451;SDS011;7827;53.594;9.938;2023-02-14T06:15:19;59.83;;;31.00;;
15451;SDS011;7827;53.594;9.938;2023-02-14T06:17:52;55.17;;;29.93;;
15451;SDS011;7827;53.594;9.938;2023-02-14T06:20:24;58.43;;;30.67;;
15451;SDS011;7827;53.594;9.938;2023-02-14T06:22:53;56.83;;;30.13;;
15451;SDS011;7827;53.594;9.938;2023-02-14T06:25:23;60.23;;;29.17;;
15451;SDS011;7827;53.594;9.938;2023-02-14T06:27:54;60.10;;;31.03;;
15451;SDS011;7827;53.594;9.938;2023-02-14T06:30:23;57.30;;;29.97;;
15451;SDS011;7827;53.594;9.938;2023-02-14T06:32:53;59.43;;;30.50;;
15451;SDS011;7827;53.594;9.938;2023-02-14T06:35:21;56.77;;;29.83;;
15451;SDS011;7827;53.594;9.938;2023-02-14T06:37:50;59.17;;;30.17;;
15451;SDS011;7827;53.594;9.938;2023-02-14T06:40:19;59.97;;;30.80;;
15451;SDS011;7827;53.594;9.938;2023-02-14T06:42:49;54.57;;;29.47;;
15451;SDS011;7827;53.594;9.938;2023-02-14T06:45:17;52.07;;;27.23;;
15451;SDS011;7827;53.594;9.938;2023-02-14T06:47:46;53.40;;;27.13;;
15451;SDS011;7827;53.594;9.938;2023-02-14T06:50:14;57.63;;;30.00;;
15451;SDS011;7827;53.594;9.938;2023-02-14T06:52:43;52.30;;;27.80;;
15451;SDS011;7827;53.594;9.938;2023-02-14T06:55:11;52.63;;;28.83;;
15451;SDS011;7827;53.594;9.938;2023-02-14T06:57:40;54.53;;;27.60;;
15451;SDS011;7827;53.594;9.938;2023-02-14T07:00:10;47.33;;;27.43;;
15451;SDS011;7827;53.594;9.938;2023-02-14T07:02:40;49.63;;;28.13;;
15451;SDS011;7827;53.594;9.938;2023-02-14T07:05:09;48.33;;;27.97;;
15451;SDS011;7827;53.594;9.938;2023-02-14T07:07:37;50.33;;;26.60;;
15451;SDS011;7827;53.594;9.938;2023-02-14T07:10:06;51.13;;;26.50;;
15451;SDS011;7827;53.594;9.938;2023-02-14T07:12:35;49.50;;;26.80;;
15451;SDS011;7827;53.594;9.938;2023-02-14T07:15:05;46.87;;;26.40;;
15451;SDS011;7827;53.594;9.938;2023-02-14T07:17:36;46.80;;;26.97;;
15451;SDS011;7827;53.594;9.938;2023-02-14T07:20:05;48.30;;;26.97;;
15451;SDS011;7827;53.594;9.938;2023-02-14T07:22:36;53.23;;;28.00;;
15451;SDS011;7827;53.594;9.938;2023-02-14T07:25:06;47.87;;;26.23;;
15451;SDS011;7827;53.594;9.938;2023-02-14T07:27:34;51.57;;;27.43;;
15451;SDS011;7827;53.594;9.938;2023-02-14T07:30:03;52.13;;;28.53;;
15451;SDS011;7827;53.594;9.938;2023-02-14T07:32:33;46.23;;;25.67;;
15451;SDS011;7827;53.594;9.938;2023-02-14T07:35:05;44.23;;;25.60;;
15451;SDS011;7827;53.594;9.938;2023-02-14T07:37:35;46.27;;;24.87;;
15451;SDS011;7827;53.594;9.938;2023-02-14T07:40:04;44.50;;;24.73;;
15451;SDS011;7827;53.594;9.938;2023-02-14T07:42:40;42.50;;;24.27;;
15451;SDS011;7827;53.594;9.938;2023-02-14T07:45:09;44.83;;;24.43;;
15451;SDS011;7827;53.594;9.938;2023-02-14T07:47:49;40.70;;;23.13;;
15451;SDS011;7827;53.594;9.938;2023-02-14T07:50:20;41.63;;;22.73;;
15451;SDS011;7827;53.594;9.938;2023-02-14T07:52:49;36.83;;;21.80;;
15451;SDS011;7827;53.594;9.938;2023-02-14T07:55:18;38.27;;;21.83;;
15451;SDS011;7827;53.594;9.938;2023-02-14T07:57:46;36.40;;;21.67;;
15451;SDS011;7827;53.594;9.938;2023-02-14T08:00:15;38.03;;;22.23;;
15451;SDS011;7827;53.594;9.938;2023-02-14T08:02:45;34.33;;;20.97;;
15451;SDS011;7827;53.594;9.938;2023-02-14T08:05:16;33.83;;;20.40;;
15451;SDS011;7827;53.594;9.938;2023-02-14T08:07:45;36.60;;;20.40;;
15451;SDS011;7827;53.594;9.938;2023-02-14T08:10:13;36.33;;;21.17;;
15451;SDS011;7827;53.594;9.938;2023-02-14T08:12:42;36.17;;;21.63;;
15451;SDS011;7827;53.594;9.938;2023-02-14T08:15:26;31.43;;;20.27;;
15451;SDS011;7827;53.594;9.938;2023-02-14T08:18:12;37.07;;;21.40;;
15451;SDS011;7827;53.594;9.938;2023-02-14T08:20:42;34.77;;;20.60;;
15451;SDS011;7827;53.594;9.938;2023-02-14T08:23:11;33.87;;;20.87;;
15451;SDS011;7827;53.594;9.938;2023-02-14T08:25:39;34.30;;;20.67;;
15451;SDS011;7827;53.594;9.938;2023-02-14T08:28:08;33.90;;;20.50;;
15451;SDS011;7827;53.594;9.938;2023-02-14T08:30:38;37.13;;;21.13;;
15451;SDS011;7827;53.594;9.938;2023-02-14T08:33:07;35.07;;;20.17;;
15451;SDS011;7827;53.594;9.938;2023-02-14T08:35:36;35.67;;;20.43;;
15451;SDS011;7827;53.594;9.938;2023-02-14T08:38:06;35.57;;;20.77;;
15451;SDS011;7827;53.594;9.938;2023-02-14T08:40:35;31.97;;;19.77;;
15451;SDS011;7827;53.594;9.938;2023-02-14T08:43:03;30.43;;;19.67;;
15451;SDS011;7827;53.594;9.938;2023-02-14T08:45:32;29.33;;;18.80;;
15451;SDS011;7827;53.594;9.938;2023-02-14T08:48:01;35.80;;;20.53;;
15451;SDS011;7827;53.594;9.938;2023-02-14T08:50:31;37.50;;;20.47;;
15451;SDS011;7827;53.594;9.938;2023-02-14T08:53:00;33.13;;;20.73;;
15451;SDS011;7827;53.594;9.938;2023-02-14T08:55:34;34.07;;;21.10;;
15451;SDS011;7827;53.594;9.938;2023-02-14T08:58:03;33.40;;;21.13;;
15451;SDS011;7827;53.594;9.938;2023-02-14T09:00:33;35.53;;;20.30;;
15451;SDS011;7827;53.594;9.938;2023-02-14T09:03:02;36.43;;;20.17;;
15451;SDS011;7827;53.594;9.938;2023-02-14T09:05:30;34.53;;;21.83;;
15451;SDS011;7827;53.594;9.938;2023-02-14T09:08:00;35.20;;;21.00;;
15451;SDS011;7827;53.594;9.938;2023-02-14T09:10:29;31.73;;;20.47;;
15451;SDS011;7827;53.594;9.938;2023-02-14T09:12:58;34.47;;;20.93;;
15451;SDS011;7827;53.594;9.938;2023-02-14T09:15:27;34.90;;;20.93;;
15451;SDS011;7827;53.594;9.938;2023-02-14T09:17:55;32.57;;;20.43;;
15451;SDS011;7827;53.594;9.938;2023-02-14T09:20:23;27.53;;;19.30;;
15451;SDS011;7827;53.594;9.938;2023-02-14T09:22:53;33.70;;;20.33;;
15451;SDS011;7827;53.594;9.938;2023-02-14T09:25:22;32.23;;;20.10;;
15451;SDS011;7827;53.594;9.938;2023-02-14T09:27:50;33.57;;;19.87;;
15451;SDS011;7827;53.594;9.938;2023-02-14T09:30:20;30.73;;;20.20;;
15451;SDS011;7827;53.594;9.938;2023-02-14T09:32:49;31.23;;;19.83;;
15451;SDS011;7827;53.594;9.938;2023-02-14T09:35:19;34.40;;;21.30;;
15451;SDS011;7827;53.594;9.938;2023-02-14T09:38:05;33.20;;;21.67;;
15451;SDS011;7827;53.594;9.938;2023-02-14T09:40:36;31.13;;;19.83;;
15451;SDS011;7827;53.594;9.938;2023-02-14T09:43:06;31.93;;;20.73;;
15451;SDS011;7827;53.594;9.938;2023-02-14T09:45:48;30.33;;;20.77;;
15451;SDS011;7827;53.594;9.938;2023-02-14T09:48:22;30.33;;;20.23;;
15451;SDS011;7827;53.594;9.938;2023-02-14T09:50:58;34.23;;;20.97;;
15451;SDS011;7827;53.594;9.938;2023-02-14T09:53:32;30.08;;;20.58;;
15451;SDS011;7827;53.594;9.938;2023-02-14T09:56:04;31.30;;;19.65;;
15451;SDS011;7827;53.594;9.938;2023-02-14T09:58:42;34.47;;;21.65;;
15451;SDS011;7827;53.594;9.938;2023-02-14T10:01:23;32.92;;;21.42;;
15451;SDS011;7827;53.594;9.938;2023-02-14T10:04:15;30.48;;;19.40;;
15451;SDS011;7827;53.594;9.938;2023-02-14T10:06:54;33.60;;;21.83;;
15451;SDS011;7827;53.594;9.938;2023-02-14T10:09:40;33.60;;;21.23;;
15451;SDS011;7827;53.594;9.938;2023-02-14T10:12:21;32.63;;;21.80;;
15451;SDS011;7827;53.594;9.938;2023-02-14T10:14:56;31.30;;;21.13;;
15451;SDS011;7827;53.594;9.938;2023-02-14T10:17:35;31.73;;;20.27;;
15451;SDS011;7827;53.594;9.938;2023-02-14T10:20:13;28.38;;;19.10;;
15451;SDS011;7827;53.594;9.938;2023-02-14T10:22:55;29.85;;;19.83;;
15451;SDS011;7827;53.594;9.938;2023-02-14T10:25:34;30.45;;;20.45;;
15451;SDS011;7827;53.594;9.938;2023-02-14T10:28:10;29.02;;;20.40;;
15451;SDS011;7827;53.594;9.938;2023-02-14T10:30:44;30.30;;;19.95;;
15451;SDS011;7827;53.594;9.938;2023-02-14T10:33:25;29.75;;;19.67;;
15451;SDS011;7827;53.594;9.938;2023-02-14T10:36:03;34.28;;;20.33;;
15451;SDS011;7827;53.594;9.938;2023-02-14T10:38:45;30.65;;;20.08;;
15451;SDS011;7827;53.594;9.938;2023-02-14T10:41:29;30.88;;;20.67;;
15451;SDS011;7827;53.594;9.938;2023-02-14T10:44:19;30.55;;;20.67;;
15451;SDS011;7827;53.594;9.938;2023-02-14T10:47:14;32.50;;;19.90;;
15451;SDS011;7827;53.594;9.938;2023-02-14T10:50:05;31.42;;;20.92;;
15451;SDS011;7827;53.594;9.938;2023-02-14T10:52:46;33.40;;;20.17;;
15451;SDS011;7827;53.594;9.938;2023-02-14T10:55:27;33.08;;;21.13;;
15451;SDS011;7827;53.594;9.938;2023-02-14T10:58:10;29.73;;;19.60;;
15451;SDS011;7827;53.594;9.938;2023-02-14T11:00:47;30.35;;;19.83;;
15451;SDS011;7827;53.594;9.938;2023-02-14T11:03:25;38.42;;;21.35;;
15451;SDS011;7827;53.594;9.938;2023-02-14T11:05:57;32.92;;;22.05;;
15451;SDS011;7827;53.594;9.938;2023-02-14T11:08:26;31.30;;;19.67;;
15451;SDS011;7827;53.594;9.938;2023-02-14T11:11:00;32.92;;;21.80;;
15451;SDS011;7827;53.594;9.938;2023-02-14T11:13:35;32.97;;;21.85;;
15451;SDS011;7827;53.594;9.938;2023-02-14T11:16:06;36.58;;;23.13;;
15451;SDS011;7827;53.594;9.938;2023-02-14T11:18:37;37.55;;;21.90;;
15451;SDS011;7827;53.594;9.938;2023-02-14T11:21:09;34.28;;;22.65;;
15451;SDS011;7827;53.594;9.938;2023-02-14T11:23:43;35.03;;;22.93;;
15451;SDS011;7827;53.594;9.938;2023-02-14T11:26:15;34.40;;;21.67;;
15451;SDS011;7827;53.594;9.938;2023-02-14T11:28:51;34.28;;;22.90;;
15451;SDS011;7827;53.594;9.938;2023-02-14T11:31:27;37.58;;;24.05;;
15451;SDS011;7827;53.594;9.938;2023-02-14T11:33:59;39.83;;;23.15;;
15451;SDS011;7827;53.594;9.938;2023-02-14T11:36:32;33.45;;;22.08;;
15451;SDS011;7827;53.594;9.938;2023-02-14T11:39:15;32.88;;;22.25;;
15451;SDS011;7827;53.594;9.938;2023-02-14T11:41:55;35.58;;;22.23;;
15451;SDS011;7827;53.594;9.938;2023-02-14T11:44:26;33.53;;;22.48;;
15451;SDS011;7827;53.594;9.938;2023-02-14T11:49:55;41.13;;;23.02;;
15451;SDS011;7827;53.594;9.938;2023-02-14T11:52:27;34.95;;;23.25;;
15451;SDS011;7827;53.594;9.938;2023-02-14T11:54:56;33.55;;;21.80;;
15451;SDS011;7827;53.594;9.938;2023-02-14T11:57:26;32.13;;;21.98;;
15451;SDS011;7827;53.594;9.938;2023-02-14T12:00:01;35.58;;;22.55;;
15451;SDS011;7827;53.594;9.938;2023-02-14T12:02:42;36.85;;;23.30;;
15451;SDS011;7827;53.594;9.938;2023-02-14T12:05:15;35.45;;;22.80;;
15451;SDS011;7827;53.594;9.938;2023-02-14T12:07:49;36.60;;;22.05;;
15451;SDS011;7827;53.594;9.938;2023-02-14T12:10:22;37.42;;;22.52;;
15451;SDS011;7827;53.594;9.938;2023-02-14T12:12:58;35.65;;;22.60;;
15451;SDS011;7827;53.594;9.938;2023-02-14T12:15:29;35.25;;;22.55;;
15451;SDS011;7827;53.594;9.938;2023-02-14T12:18:17;33.33;;;21.20;;
15451;SDS011;7827;53.594;9.938;2023-02-14T12:21:17;34.38;;;22.52;;
15451;SDS011;7827;53.594;9.938;2023-02-14T12:24:09;36.03;;;23.33;;
15451;SDS011;7827;53.594;9.938;2023-02-14T12:26:48;38.00;;;22.55;;
15451;SDS011;7827;53.594;9.938;2023-02-14T12:29:29;35.47;;;22.27;;
15451;SDS011;7827;53.594;9.938;2023-02-14T12:32:19;37.65;;;23.05;;
15451;SDS011;7827;53.594;9.938;2023-02-14T12:34:50;33.15;;;21.95;;
15451;SDS011;7827;53.594;9.938;2023-02-14T12:37:30;34.35;;;22.00;;
15451;SDS011;7827;53.594;9.938;2023-02-14T12:40:18;35.90;;;22.38;;
15451;SDS011;7827;53.594;9.938;2023-02-14T12:42:59;34.00;;;22.42;;
15451;SDS011;7827;53.594;9.938;2023-02-14T12:45:56;34.95;;;21.50;;
15451;SDS011;7827;53.594;9.938;2023-02-14T12:48:42;35.67;;;21.67;;
15451;SDS011;7827;53.594;9.938;2023-02-14T12:51:35;33.53;;;21.75;;
15451;SDS011;7827;53.594;9.938;2023-02-14T12:54:22;36.75;;;23.48;;
15451;SDS011;7827;53.594;9.938;2023-02-14T12:57:14;34.30;;;22.20;;
15451;SDS011;7827;53.594;9.938;2023-02-14T13:00:00;33.80;;;23.15;;
15451;SDS011;7827;53.594;9.938;2023-02-14T13:02:51;36.78;;;23.38;;
15451;SDS011;7827;53.594;9.938;2023-02-14T13:06:00;33.13;;;22.02;;
15451;SDS011;7827;53.594;9.938;2023-02-14T13:08:43;34.05;;;22.48;;
15451;SDS011;7827;53.594;9.938;2023-02-14T13:11:38;35.03;;;22.33;;
15451;SDS011;7827;53.594;9.938;2023-02-14T13:14:27;31.77;;;21.65;;
15451;SDS011;7827;53.594;9.938;2023-02-14T13:17:13;35.25;;;22.77;;
15451;SDS011;7827;53.594;9.938;2023-02-14T13:19:54;35.22;;;22.95;;
15451;SDS011;7827;53.594;9.938;2023-02-14T13:22:39;34.13;;;21.70;;
15451;SDS011;7827;53.594;9.938;2023-02-14T13:25:12;32.40;;;21.08;;
15451;SDS011;7827;53.594;9.938;2023-02-14T13:27:57;36.03;;;22.85;;
15451;SDS011;7827;53.594;9.938;2023-02-14T13:30:30;34.75;;;22.48;;
15451;SDS011;7827;53.594;9.938;2023-02-14T13:33:02;34.65;;;21.63;;
15451;SDS011;7827;53.594;9.938;2023-02-14T13:35:36;35.75;;;22.02;;
15451;SDS011;7827;53.594;9.938;2023-02-14T13:38:05;30.52;;;20.67;;
15451;SDS011;7827;53.594;9.938;2023-02-14T13:40:40;32.20;;;21.70;;
15451;SDS011;7827;53.594;9.938;2023-02-14T13:43:09;32.65;;;21.98;;
15451;SDS011;7827;53.594;9.938;2023-02-14T13:45:52;34.47;;;22.02;;
15451;SDS011;7827;53.594;9.938;2023-02-14T13:48:22;30.38;;;20.95;;
15451;SDS011;7827;53.594;9.938;2023-02-14T13:50:54;34.58;;;21.65;;
15451;SDS011;7827;53.594;9.938;2023-02-14T13:53:36;30.83;;;21.35;;
15451;SDS011;7827;53.594;9.938;2023-02-14T13:59:02;34.85;;;21.73;;
15451;SDS011;7827;53.594;9.938;2023-02-14T14:01:38;33.67;;;21.58;;
15451;SDS011;7827;53.594;9.938;2023-02-14T14:04:32;33.88;;;21.77;;
15451;SDS011;7827;53.594;9.938;2023-02-14T14:07:14;37.15;;;21.85;;
15451;SDS011;7827;53.594;9.938;2023-02-14T14:10:02;33.05;;;21.60;;
15451;SDS011;7827;53.594;9.938;2023-02-14T14:12:39;32.28;;;21.38;;
15451;SDS011;7827;53.594;9.938;2023-02-14T14:15:15;31.25;;;21.55;;
15451;SDS011;7827;53.594;9.938;2023-02-14T14:17:48;33.60;;;21.70;;
15451;SDS011;7827;53.594;9.938;2023-02-14T14:20:58;34.30;;;21.60;;
15451;SDS011;7827;53.594;9.938;2023-02-14T14:23:28;36.08;;;23.42;;
15451;SDS011;7827;53.594;9.938;2023-02-14T14:29:02;29.42;;;20.35;;
15451;SDS011;7827;53.594;9.938;2023-02-14T14:31:42;34.35;;;22.60;;
15451;SDS011;7827;53.594;9.938;2023-02-14T14:34:16;31.77;;;22.08;;
15451;SDS011;7827;53.594;9.938;2023-02-14T14:36:46;34.63;;;21.60;;
15451;SDS011;7827;53.594;9.938;2023-02-14T14:39:23;34.00;;;22.40;;
15451;SDS011;7827;53.594;9.938;2023-02-14T14:41:55;34.72;;;21.38;;
15451;SDS011;7827;53.594;9.938;2023-02-14T14:44:33;34.33;;;22.65;;
15451;SDS011;7827;53.594;9.938;2023-02-14T14:47:04;34.10;;;22.58;;
15451;SDS011;7827;53.594;9.938;2023-02-14T14:49:39;33.63;;;23.13;;
15451;SDS011;7827;53.594;9.938;2023-02-14T14:52:10;34.60;;;23.27;;
15451;SDS011;7827;53.594;9.938;2023-02-14T14:54:55;32.08;;;22.63;;
15451;SDS011;7827;53.594;9.938;2023-02-14T14:57:25;34.40;;;22.33;;
15451;SDS011;7827;53.594;9.938;2023-02-14T15:00:17;35.60;;;20.20;;
15451;SDS011;7827;53.594;9.938;2023-02-14T15:02:56;31.08;;;18.90;;
15451;SDS011;7827;53.594;9.938;2023-02-14T15:05:33;34.60;;;21.50;;
15451;SDS011;7827;53.594;9.938;2023-02-14T15:08:13;33.15;;;22.15;;
15451;SDS011;7827;53.594;9.938;2023-02-14T15:10:47;31.90;;;20.40;;
15451;SDS011;7827;53.594;9.938;2023-02-14T15:13:20;30.08;;;20.55;;
15451;SDS011;7827;53.594;9.938;2023-02-14T15:16:16;35.85;;;22.17;;
15451;SDS011;7827;53.594;9.938;2023-02-14T15:18:48;32.28;;;20.65;;
15451;SDS011;7827;53.594;9.938;2023-02-14T15:21:23;30.98;;;20.55;;
15451;SDS011;7827;53.594;9.938;2023-02-14T15:23:51;32.53;;;21.08;;
15451;SDS011;7827;53.594;9.938;2023-02-14T15:26:22;32.70;;;21.15;;
15451;SDS011;7827;53.594;9.938;2023-02-14T15:28:55;31.92;;;21.30;;
15451;SDS011;7827;53.594;9.938;2023-02-14T15:31:29;28.92;;;20.23;;
15451;SDS011;7827;53.594;9.938;2023-02-14T15:34:02;31.15;;;20.70;;
15451;SDS011;7827;53.594;9.938;2023-02-14T15:36:33;31.63;;;21.65;;
15451;SDS011;7827;53.594;9.938;2023-02-14T15:39:03;31.70;;;20.40;;
15451;SDS011;7827;53.594;9.938;2023-02-14T15:41:34;32.42;;;20.63;;
15451;SDS011;7827;53.594;9.938;2023-02-14T15:44:16;30.60;;;20.50;;
15451;SDS011;7827;53.594;9.938;2023-02-14T15:46:46;32.45;;;21.08;;
15451;SDS011;7827;53.594;9.938;2023-02-14T15:49:21;30.23;;;19.85;;
15451;SDS011;7827;53.594;9.938;2023-02-14T15:51:58;33.42;;;20.00;;